Rome, GA (30165)

2:16 PM EDT on August 22, 2014 (GMT -0400)
Fair Oaks/West Rome | Change Station
CLOSE
Current Station
Personal Weather Station
Location: Rome, GA
Elevation: 794 ft
Nearby Weather Stations

Elev 794 ft 34.26 °N, 85.25 °W | Updated 9 seconds ago

Scattered Clouds
Scattered Clouds
95.9 °F
Feels Like 104 °F
N
3.8
Wind Variable Wind from North
Gusts 9.2 mph

Today
High -- | Low -- °F
--% Chance of Precip.
Yesterday
High -- | Low -- °F
Precip. -- in
7:07 AM 8:19 PM
Waning Crescent, 7% visible
Pressure 30.04 in
Visibility 10.0 miles
Clouds Few 5500 ft
Scattered Clouds 7000 ft
Heat Index 104 °F
Dew Point 71 °F
Humidity 45%
Rainfall 0.00 in
Snow Depth Not available.
UV 9 out of 12
Pollen 9.10 out of 12
Air Quality Not available.
Flu Activity Not available.
METAR KRMG 221753Z AUTO 28009KT 10SM FEW055 SCT070 34/22 A3007 RMK AO2 SLP172 T03440222 10344 20211 58019

More Conditions Fewer Conditions

Pressure 30.04 in
Visibility 10.0 miles
Clouds Few 5500 ft
Scattered Clouds 7000 ft
Heat Index 104 °F
Dew Point 71 °F
Humidity 45%
Rainfall 0.00 in
Snow Depth Not available.
UV 9 out of 12
Pollen 9.10 out of 12
Air Quality Not available.
Flu Activity Not available.
METAR KRMG 221753Z AUTO 28009KT 10SM FEW055 SCT070 34/22 A3007 RMK AO2 SLP172 T03440222 10344 20211 58019

More Conditions Fewer Conditions

10-Day Weather Forecast

Almanac

Astronomy

Aug. 22, 2014 Rise Set
Actual Time 7:07 AM EDT 8:19 PM EDT
Civil Twilight 6:41 AM EDT 8:45 PM EDT
Nautical Twilight 6:09 AM EDT 9:16 PM EDT
Astronomical Twilight 5:37 AM EDT 9:49 PM EDT
Moon 4:32 AM EDT 6:25 PM EDT
Length of Visible Light 14h 04m
Length of Day
13h 12m
Tomorrow will be 1m 58s shorter.
Waning Crescent, 7% of the Moon is Illuminated
Today
Waning Crescent
Aug 25
New
Sep 2
First Quarter
Sep 8
Full
Sep 15
Last Quarter

Today's Extremes

State Highs State Lows

Community

WunderPhotos

Upload Photos

1,746,214 photos uploaded!

WunderBlogs® & News

Nearby

Snow Depth

Station Depth Elevation
No new snow has been reported.

Earthquake Activity

City Distance Mag. Time & Date
No recent earthquake activity has been reported nearby.
Minimum magnitude displayed is 2.5.

Coastal Water Temperatures

Place Temperature
No Stations Reporting

Nearby Weather Stations